createdAt,value
2023-04-09T00:02:25.302Z,102467.34
2023-04-09T00:04:52.619Z,102468.50
2023-04-09T00:07:19.857Z,102468.34
2023-04-09T00:09:46.825Z,102472.63
2023-04-09T00:12:13.834Z,102472.47
2023-04-09T00:14:40.819Z,102472.41
2023-04-09T00:17:07.763Z,102465.44
2023-04-09T00:19:34.721Z,102462.81
2023-04-09T00:22:01.805Z,102463.78
2023-04-09T00:24:28.753Z,102458.66
2023-04-09T00:26:55.692Z,102461.59
2023-04-09T00:29:22.809Z,102469.31
2023-04-09T00:31:49.926Z,102457.09
2023-04-09T00:34:16.929Z,102456.78
2023-04-09T00:36:43.885Z,102456.91
2023-04-09T00:39:11.052Z,102455.28
2023-04-09T00:41:38.208Z,102459.47
2023-04-09T00:44:05.151Z,102447.41
2023-04-09T00:46:32.663Z,102455.38
2023-04-09T00:49:00.109Z,102451.00
2023-04-09T00:51:28.645Z,102449.28
2023-04-09T00:53:56.259Z,102447.63
2023-04-09T00:56:24.838Z,102443.31
2023-04-09T00:58:52.050Z,102438.22
2023-04-09T01:01:19.353Z,102433.66
2023-04-09T01:03:46.681Z,102439.88
2023-04-09T01:06:38.063Z,102432.97
2023-04-09T01:09:35.510Z,102437.50
2023-04-09T01:12:38.877Z,102434.00
2023-04-09T01:15:08.718Z,102428.66
2023-04-09T01:17:50.605Z,102431.44
2023-04-09T01:20:40.854Z,102424.31
2023-04-09T01:23:10.675Z,102427.06
2023-04-09T01:25:59.316Z,102430.66
2023-04-09T01:28:35.423Z,102425.47
2023-04-09T01:31:09.032Z,102435.00
2023-04-09T01:33:38.064Z,102421.13
2023-04-09T01:36:07.147Z,102425.47
2023-04-09T01:38:36.731Z,102429.00
2023-04-09T01:41:05.263Z,102426.31
2023-04-09T01:43:33.767Z,102426.44
2023-04-09T01:46:03.434Z,102429.00
2023-04-09T01:48:31.669Z,102435.16
2023-04-09T01:50:59.459Z,102424.56
2023-04-09T01:53:29.323Z,102432.47
2023-04-09T01:55:56.839Z,102429.91
2023-04-09T01:58:25.642Z,102429.81
2023-04-09T02:00:59.886Z,102428.22
2023-04-09T02:03:51.789Z,102430.78
2023-04-09T02:06:44.433Z,102430.78
2023-04-09T02:09:12.685Z,102429.81
2023-04-09T02:11:43.154Z,102431.50
2023-04-09T02:14:11.875Z,102426.31
2023-04-09T02:16:40.789Z,102428.03
2023-04-09T02:19:07.868Z,102422.72
2023-04-09T02:21:34.849Z,102421.81
2023-04-09T02:24:01.827Z,102420.97
2023-04-09T02:26:28.862Z,102417.59
2023-04-09T02:28:55.951Z,102412.19
2023-04-09T02:31:22.946Z,102413.16
2023-04-09T02:33:51.125Z,102411.31
2023-04-09T02:36:18.096Z,102409.63
2023-04-09T02:38:45.529Z,102412.34
2023-04-09T02:41:12.619Z,102408.09
2023-04-09T02:43:39.636Z,102400.09
2023-04-09T02:46:08.510Z,102400.16
2023-04-09T02:48:35.442Z,102405.41
2023-04-09T02:51:05.360Z,102405.41
2023-04-09T02:53:32.308Z,102405.53
2023-04-09T02:55:59.279Z,102401.13
2023-04-09T02:58:26.289Z,102398.38
2023-04-09T03:00:53.293Z,102393.94
2023-04-09T03:03:20.521Z,102398.28
2023-04-09T03:05:47.509Z,102393.19
2023-04-09T03:08:14.737Z,102395.88
2023-04-09T03:10:41.857Z,102391.56
2023-04-09T03:13:08.850Z,102391.69
2023-04-09T03:15:36.113Z,102383.63
2023-04-09T03:18:03.170Z,102385.28
2023-04-09T03:20:30.734Z,102388.63
2023-04-09T03:22:57.708Z,102393.09
2023-04-09T03:25:24.771Z,102376.44
2023-04-09T03:27:51.966Z,102378.25
2023-04-09T03:30:18.938Z,102373.75
2023-04-09T03:32:45.936Z,102379.84
2023-04-09T03:35:12.959Z,102372.91
2023-04-09T03:38:41.669Z,102365.94
2023-04-09T03:41:08.663Z,102368.75
2023-04-09T03:43:36.229Z,102369.47
2023-04-09T03:46:15.671Z,102365.03
2023-04-09T03:48:42.956Z,102361.59
2023-04-09T03:51:17.018Z,102362.34
2023-04-09T03:53:44.156Z,102361.50
2023-04-09T03:56:11.676Z,102361.44
2023-04-09T03:58:38.737Z,102360.56
2023-04-09T04:01:05.997Z,102359.78
2023-04-09T04:03:33.215Z,102354.53
2023-04-09T04:06:04.773Z,102361.66
2023-04-09T04:08:31.748Z,102359.72
2023-04-09T04:11:04.886Z,102359.53
2023-04-09T04:13:32.092Z,102364.00
2023-04-09T04:15:59.250Z,102362.16
2023-04-09T04:18:26.280Z,102360.41
2023-04-09T04:20:53.224Z,102360.50
2023-04-09T04:23:20.254Z,102365.81
2023-04-09T04:25:47.244Z,102357.72
2023-04-09T04:28:14.238Z,102365.69
2023-04-09T04:30:44.225Z,102356.91
2023-04-09T04:33:11.256Z,102361.38
2023-04-09T04:35:38.350Z,102356.97
2023-04-09T04:38:05.394Z,102359.53
2023-04-09T04:40:32.397Z,102364.78
2023-04-09T04:42:59.391Z,102366.56
2023-04-09T04:45:26.427Z,102354.34
2023-04-09T04:47:53.506Z,102356.97
2023-04-09T04:50:20.582Z,102355.31
2023-04-09T04:52:47.532Z,102353.56
2023-04-09T04:55:14.516Z,102354.53
2023-04-09T04:57:41.462Z,102350.31
2023-04-09T05:00:09.302Z,102362.22
2023-04-09T05:02:36.386Z,102361.31
2023-04-09T05:05:03.580Z,102361.31
2023-04-09T05:07:30.647Z,102363.94
2023-04-09T05:09:58.810Z,102359.53
2023-04-09T05:12:25.896Z,102357.72
2023-04-09T05:14:53.162Z,102365.63
2023-04-09T05:17:20.257Z,102363.00
2023-04-09T05:19:55.019Z,102361.91
2023-04-09T05:22:22.090Z,102371.69
2023-04-09T05:24:49.208Z,102369.13
2023-04-09T05:27:16.678Z,102368.31
2023-04-09T05:29:43.690Z,102371.84
2023-04-09T05:32:10.751Z,102368.25
2023-04-09T05:34:37.716Z,102377.97
2023-04-09T05:37:04.764Z,102378.13
2023-04-09T05:39:33.274Z,102372.72
2023-04-09T05:42:00.951Z,102375.41
2023-04-09T05:44:28.098Z,102374.47
2023-04-09T05:46:55.079Z,102387.66
2023-04-09T05:49:22.271Z,102378.88
2023-04-09T05:51:50.710Z,102384.25
2023-04-09T05:54:17.843Z,102378.03
2023-04-09T05:56:44.848Z,102379.13
2023-04-09T05:59:11.866Z,102381.63
2023-04-09T06:01:38.811Z,102388.75
2023-04-09T06:04:06.253Z,102383.63
2023-04-09T06:06:33.358Z,102386.19
2023-04-09T06:09:00.369Z,102388.16
2023-04-09T06:11:27.346Z,102391.44
2023-04-09T06:13:54.449Z,102391.75
2023-04-09T06:16:21.674Z,102392.63
2023-04-09T06:18:50.927Z,102394.31
2023-04-09T06:21:18.018Z,102388.16
2023-04-09T06:23:45.159Z,102388.94
2023-04-09T06:26:12.308Z,102386.41
2023-04-09T06:28:39.474Z,102389.25
2023-04-09T06:31:06.617Z,102397.00
2023-04-09T06:33:33.725Z,102401.41
2023-04-09T06:36:00.824Z,102393.84
2023-04-09T06:38:27.882Z,102399.94
2023-04-09T06:40:57.267Z,102406.72
2023-04-09T06:43:24.302Z,102399.03
2023-04-09T06:45:51.536Z,102402.91
2023-04-09T06:48:18.697Z,102407.25
2023-04-09T06:50:45.916Z,102404.69
2023-04-09T06:53:13.039Z,102402.81
2023-04-09T06:55:40.205Z,102402.06
2023-04-09T06:58:07.139Z,102414.56
2023-04-09T07:00:34.151Z,102404.34
2023-04-09T07:03:01.717Z,102405.22
2023-04-09T07:05:28.980Z,102396.06
2023-04-09T07:07:56.138Z,102400.53
2023-04-09T07:10:23.087Z,102393.66
2023-04-09T07:12:50.082Z,102401.13
2023-04-09T07:15:17.203Z,102389.94
2023-04-09T07:17:44.370Z,102393.91
2023-04-09T07:20:12.055Z,102395.75
2023-04-09T07:22:39.117Z,102394.97
2023-04-09T07:25:06.891Z,102400.50
2023-04-09T07:27:33.884Z,102400.97
2023-04-09T07:30:01.144Z,102404.91
2023-04-09T07:32:28.722Z,102399.59
2023-04-09T07:34:57.358Z,102395.47
2023-04-09T07:37:24.510Z,102400.63
2023-04-09T07:39:51.592Z,102395.81
2023-04-09T07:42:18.587Z,102406.53
2023-04-09T07:44:45.700Z,102402.28
2023-04-09T07:47:13.008Z,102404.00
2023-04-09T07:49:40.638Z,102393.63
2023-04-09T07:52:08.211Z,102396.03
2023-04-09T07:54:35.852Z,102387.13
2023-04-09T07:57:03.145Z,102383.06
2023-04-09T07:59:31.661Z,102382.97
2023-04-09T08:01:59.634Z,102381.06
2023-04-09T08:04:27.431Z,102373.16
2023-04-09T08:06:54.863Z,102383.31
2023-04-09T08:09:21.924Z,102382.63
2023-04-09T08:11:50.409Z,102379.88
2023-04-09T08:14:18.597Z,102381.72
2023-04-09T08:16:50.309Z,102379.66
2023-04-09T08:19:20.104Z,102379.63
2023-04-09T08:21:48.985Z,102378.44
2023-04-09T08:24:16.524Z,102366.03
2023-04-09T08:26:43.901Z,102368.84
2023-04-09T08:29:13.104Z,102362.16
2023-04-09T08:31:40.436Z,102374.91
2023-04-09T08:34:07.727Z,102372.75
2023-04-09T08:36:35.805Z,102378.47
2023-04-09T08:39:04.090Z,102371.19
2023-04-09T08:41:31.530Z,102369.78
2023-04-09T08:43:59.983Z,102384.81
2023-04-09T08:46:28.068Z,102371.81
2023-04-09T08:48:55.931Z,102381.34
2023-04-09T08:51:24.538Z,102373.84
2023-04-09T08:54:03.045Z,102372.69
2023-04-09T08:56:31.484Z,102369.16
2023-04-09T08:58:58.683Z,102368.81
2023-04-09T09:01:27.234Z,102368.28
2023-04-09T09:04:06.307Z,102368.03
2023-04-09T09:06:37.149Z,102371.13
2023-04-09T09:09:11.001Z,102367.75
2023-04-09T09:11:39.564Z,102366.34
2023-04-09T09:14:17.993Z,102368.81
2023-04-09T09:16:57.843Z,102359.88
2023-04-09T09:19:24.781Z,102358.25
2023-04-09T09:22:03.112Z,102351.97
2023-04-09T09:24:34.993Z,102357.78
2023-04-09T09:27:03.068Z,102358.78
2023-04-09T09:29:30.266Z,102358.22
2023-04-09T09:31:57.344Z,102361.31
2023-04-09T09:34:26.004Z,102357.00
2023-04-09T09:36:53.296Z,102348.22
2023-04-09T09:39:22.079Z,102349.84
2023-04-09T09:42:06.604Z,102354.63
2023-04-09T09:44:34.005Z,102351.97
2023-04-09T09:47:03.502Z,102338.06
2023-04-09T09:49:30.720Z,102338.19
2023-04-09T09:51:59.510Z,102324.44
2023-04-09T09:54:31.929Z,102331.09
2023-04-09T09:57:04.771Z,102326.53
2023-04-09T09:59:34.526Z,102312.03
2023-04-09T10:02:07.503Z,102318.19
2023-04-09T10:04:38.157Z,102313.16
2023-04-09T10:07:07.437Z,102310.94
2023-04-09T10:09:37.769Z,102303.03
2023-04-09T10:12:09.673Z,102295.97
2023-04-09T10:14:37.360Z,102293.88
2023-04-09T10:17:04.934Z,102289.13
2023-04-09T10:19:35.680Z,102287.53
2023-04-09T10:22:12.097Z,102279.81
2023-04-09T10:24:39.726Z,102276.09
2023-04-09T10:27:17.057Z,102276.13
2023-04-09T10:29:49.645Z,102276.41
2023-04-09T10:32:23.931Z,102276.47
2023-04-09T10:34:51.060Z,102274.81
2023-04-09T10:37:26.806Z,102270.69
2023-04-09T10:39:54.510Z,102268.91
2023-04-09T10:42:30.365Z,102267.47
2023-04-09T10:45:10.824Z,102263.06
2023-04-09T10:47:40.468Z,102255.94
2023-04-09T10:50:24.132Z,102252.41
2023-04-09T10:53:00.390Z,102258.75
2023-04-09T10:55:37.147Z,102245.41
2023-04-09T10:58:12.346Z,102245.41
2023-04-09T11:00:45.611Z,102240.56
2023-04-09T11:03:26.152Z,102240.44
2023-04-09T11:06:10.571Z,102236.97
2023-04-09T11:08:38.907Z,102248.34
2023-04-09T11:11:06.158Z,102238.63
2023-04-09T11:13:34.372Z,102231.81
2023-04-09T11:16:04.135Z,102236.22
2023-04-09T11:18:33.900Z,102231.84
2023-04-09T11:21:04.094Z,102228.44
2023-04-09T11:23:32.886Z,102234.78
2023-04-09T11:26:00.110Z,102227.69
2023-04-09T11:28:27.738Z,102227.72
2023-04-09T11:30:54.841Z,102225.13
2023-04-09T11:33:22.452Z,102228.59
2023-04-09T11:35:49.555Z,102222.19
2023-04-09T11:38:16.723Z,102225.97
2023-04-09T11:40:49.379Z,102224.06
2023-04-09T11:43:17.712Z,102225.72
2023-04-09T11:45:48.117Z,102227.69
2023-04-09T11:48:18.400Z,102211.72
2023-04-09T11:50:47.471Z,102215.25
2023-04-09T11:53:19.717Z,102211.00
2023-04-09T11:55:56.334Z,102204.06
2023-04-09T11:58:26.291Z,102206.59
2023-04-09T12:00:56.260Z,102212.84
2023-04-09T12:03:34.187Z,102203.94
2023-04-09T12:06:03.102Z,102203.91
2023-04-09T12:08:31.293Z,102200.44
2023-04-09T12:11:12.843Z,102198.63
2023-04-09T12:13:45.843Z,102190.50
2023-04-09T12:16:14.390Z,102194.28
2023-04-09T12:18:41.711Z,102187.19
2023-04-09T12:21:08.887Z,102190.81
2023-04-09T12:23:36.066Z,102186.38
2023-04-09T12:26:03.252Z,102187.34
2023-04-09T12:28:30.956Z,102198.97
2023-04-09T12:30:59.556Z,102189.16
2023-04-09T12:33:27.231Z,102182.94
2023-04-09T12:35:54.276Z,102184.66
2023-04-09T12:38:21.437Z,102184.66
2023-04-09T12:40:48.521Z,102184.72
2023-04-09T12:43:15.800Z,102179.38
2023-04-09T12:45:43.185Z,102176.63
2023-04-09T12:48:10.327Z,102173.06
2023-04-09T12:50:37.326Z,102181.00
2023-04-09T12:53:04.348Z,102180.13
2023-04-09T12:55:31.671Z,102187.22
2023-04-09T12:57:58.783Z,102185.50
2023-04-09T13:00:25.792Z,102189.97
2023-04-09T13:02:53.104Z,102189.94
2023-04-09T13:05:20.358Z,102181.88
2023-04-09T13:07:47.605Z,102187.28
2023-04-09T13:10:14.731Z,102179.38
2023-04-09T13:12:41.707Z,102182.91
2023-04-09T13:15:08.997Z,102182.03
2023-04-09T13:17:36.058Z,102176.69
2023-04-09T13:20:03.753Z,102175.81
2023-04-09T13:22:30.991Z,102174.03
2023-04-09T13:24:58.007Z,102172.28
2023-04-09T13:27:25.030Z,102165.13
2023-04-09T13:29:52.071Z,102161.56
2023-04-09T13:32:21.193Z,102160.66
2023-04-09T13:34:48.281Z,102158.03
2023-04-09T13:37:15.739Z,102152.69
2023-04-09T13:39:44.303Z,102154.47
2023-04-09T13:42:14.165Z,102148.22
2023-04-09T13:44:44.629Z,102150.00
2023-04-09T13:47:13.521Z,102138.47
2023-04-09T13:49:41.455Z,102142.91
2023-04-09T13:52:09.128Z,102132.22
2023-04-09T13:54:36.308Z,102133.94
2023-04-09T13:57:03.940Z,102140.19
2023-04-09T13:59:31.038Z,102141.09
2023-04-09T14:01:58.301Z,102129.50
2023-04-09T14:04:25.579Z,102132.19
2023-04-09T14:06:52.579Z,102124.13
2023-04-09T14:09:19.578Z,102120.63
2023-04-09T14:11:46.558Z,102124.22
2023-04-09T14:14:13.578Z,102124.22
2023-04-09T14:16:40.800Z,102117.97
2023-04-09T14:19:10.048Z,102117.91
2023-04-09T14:21:37.061Z,102109.97
2023-04-09T14:24:04.263Z,102100.19
2023-04-09T14:26:31.626Z,102094.84
2023-04-09T14:28:59.626Z,102094.84
2023-04-09T14:31:26.764Z,102109.97
2023-04-09T14:33:53.732Z,102092.19
2023-04-09T14:36:21.433Z,102085.84
2023-04-09T14:38:49.221Z,102083.25
2023-04-09T14:41:17.076Z,102076.03
2023-04-09T14:43:44.121Z,102067.16
2023-04-09T14:46:12.205Z,102071.69
2023-04-09T14:48:40.248Z,102069.97
2023-04-09T14:51:10.124Z,102059.25
2023-04-09T14:53:37.500Z,102065.47
2023-04-09T14:56:05.149Z,102064.53
2023-04-09T14:58:32.165Z,102058.34
2023-04-09T15:00:59.112Z,102053.91
2023-04-09T15:03:26.315Z,102050.38
2023-04-09T15:05:53.724Z,102061.00
2023-04-09T15:08:20.989Z,102049.47
2023-04-09T15:10:48.016Z,102043.25
2023-04-09T15:13:14.984Z,102050.25
2023-04-09T15:15:44.077Z,102043.13
2023-04-09T15:18:11.232Z,102037.88
2023-04-09T15:20:39.361Z,102048.47
2023-04-09T15:23:06.690Z,102032.44
2023-04-09T15:25:33.752Z,102042.22
2023-04-09T15:28:02.153Z,102046.66
2023-04-09T15:30:29.675Z,102045.00
2023-04-09T15:32:56.800Z,102040.50
2023-04-09T15:35:29.392Z,102040.56
2023-04-09T15:37:57.040Z,102039.63
2023-04-09T15:40:24.181Z,102039.69
2023-04-09T15:42:51.312Z,102030.75
2023-04-09T15:45:18.467Z,102031.66
2023-04-09T15:47:46.227Z,102021.00
2023-04-09T15:50:14.094Z,102037.81
2023-04-09T15:52:41.192Z,102038.72
2023-04-09T15:55:09.133Z,102039.59
2023-04-09T15:57:36.496Z,102034.34
2023-04-09T16:00:04.341Z,102030.66
2023-04-09T16:02:31.399Z,102030.66
2023-04-09T16:04:58.556Z,102024.53
2023-04-09T16:07:25.689Z,102025.41
2023-04-09T16:09:52.723Z,102023.63
2023-04-09T16:12:19.707Z,102022.75
2023-04-09T16:14:46.657Z,102020.06
2023-04-09T16:17:13.614Z,102014.72
2023-04-09T16:19:41.863Z,102017.34
2023-04-09T16:22:09.926Z,102014.78
2023-04-09T16:24:37.087Z,102015.66
2023-04-09T16:27:04.128Z,102011.19
2023-04-09T16:29:31.150Z,102011.22
2023-04-09T16:31:58.200Z,102004.09
2023-04-09T16:34:25.281Z,102001.44
2023-04-09T16:36:52.346Z,102001.44
2023-04-09T16:39:19.928Z,102000.59
2023-04-09T16:41:46.885Z,101999.72
2023-04-09T16:44:14.021Z,102005.97
2023-04-09T16:46:41.389Z,102002.41
2023-04-09T16:49:08.413Z,101994.38
2023-04-09T16:51:35.796Z,101997.06
2023-04-09T16:54:03.214Z,101995.31
2023-04-09T16:56:30.680Z,101998.84
2023-04-09T16:58:58.934Z,101994.44
2023-04-09T17:01:26.414Z,101997.97
2023-04-09T17:03:53.541Z,101996.22
2023-04-09T17:06:20.718Z,101992.63
2023-04-09T17:08:47.774Z,101988.19
2023-04-09T17:11:16.590Z,101995.31
2023-04-09T17:13:43.598Z,101994.38
2023-04-09T17:16:14.330Z,102000.59
2023-04-09T17:18:41.466Z,101997.94
2023-04-09T17:21:08.446Z,101998.78
2023-04-09T17:23:36.161Z,101997.84
2023-04-09T17:26:03.196Z,101995.19
2023-04-09T17:28:30.153Z,101997.81
2023-04-09T17:30:57.269Z,101998.66
2023-04-09T17:33:24.362Z,101995.88
2023-04-09T17:35:52.938Z,101997.63
2023-04-09T17:38:21.572Z,102004.53
2023-04-09T17:40:48.887Z,101997.41
2023-04-09T17:43:15.894Z,101997.41
2023-04-09T17:45:43.278Z,102000.88
2023-04-09T17:48:10.795Z,102001.66
2023-04-09T17:50:39.087Z,102006.06
2023-04-09T17:53:06.241Z,102005.88
2023-04-09T17:55:33.443Z,102006.69
2023-04-09T17:58:00.532Z,101997.75
2023-04-09T18:00:28.876Z,101994.94
2023-04-09T18:02:57.819Z,101998.41
2023-04-09T18:05:26.080Z,102000.06
2023-04-09T18:07:54.968Z,102007.06
2023-04-09T18:10:22.657Z,102003.34
2023-04-09T18:12:49.754Z,102007.72
2023-04-09T18:15:18.723Z,102011.25
2023-04-09T18:17:46.307Z,102007.56
2023-04-09T18:20:15.394Z,102005.66
2023-04-09T18:22:43.609Z,102009.06
2023-04-09T18:25:10.913Z,102015.19
2023-04-09T18:27:37.929Z,102019.47
2023-04-09T18:30:07.311Z,102010.44
2023-04-09T18:32:34.452Z,102015.63
2023-04-09T18:35:01.735Z,102021.69
2023-04-09T18:37:28.711Z,102020.66
2023-04-09T18:39:55.751Z,102024.09
2023-04-09T18:42:22.767Z,102026.63
2023-04-09T18:44:49.729Z,102026.50
2023-04-09T18:47:16.735Z,102029.03
2023-04-09T18:49:43.698Z,102026.22
2023-04-09T18:52:10.823Z,102029.50
2023-04-09T18:54:38.964Z,102025.03
2023-04-09T18:57:06.524Z,102021.34
2023-04-09T18:59:34.965Z,102024.78
2023-04-09T19:02:06.058Z,102027.09
2023-04-09T19:04:39.828Z,102024.28
2023-04-09T19:07:07.712Z,102030.34
2023-04-09T19:09:35.585Z,102023.94
2023-04-09T19:12:02.839Z,102025.63
2023-04-09T19:14:30.050Z,102022.78
2023-04-09T19:16:58.613Z,102022.72
2023-04-09T19:19:25.712Z,102034.03
2023-04-09T19:21:52.707Z,102032.16
2023-04-09T19:24:19.678Z,102031.94
2023-04-09T19:26:46.656Z,102037.19
2023-04-09T19:29:13.579Z,102039.59
2023-04-09T19:31:41.472Z,102032.34
2023-04-09T19:34:10.775Z,102045.47
2023-04-09T19:36:37.889Z,102043.53
2023-04-09T19:39:05.903Z,102040.69
2023-04-09T19:41:33.293Z,102041.44
2023-04-09T19:44:01.435Z,102052.75
2023-04-09T19:46:28.564Z,102050.03
2023-04-09T19:48:56.757Z,102050.75
2023-04-09T19:51:23.754Z,102039.97
2023-04-09T19:53:50.721Z,102034.63
2023-04-09T19:56:18.047Z,102038.94
2023-04-09T19:58:45.124Z,102035.31
2023-04-09T20:01:12.155Z,102031.72
2023-04-09T20:03:39.211Z,102032.53
2023-04-09T20:06:10.460Z,102030.63
2023-04-09T20:08:38.254Z,102027.03
2023-04-09T20:11:05.592Z,102032.97
2023-04-09T20:13:33.305Z,102022.00
2023-04-09T20:16:00.728Z,102019.28
2023-04-09T20:18:28.673Z,102026.28
2023-04-09T20:20:55.705Z,102027.06
2023-04-09T20:23:22.777Z,102014.66
2023-04-09T20:25:54.945Z,102017.81
2023-04-09T20:28:22.147Z,102008.03
2023-04-09T20:30:49.418Z,102004.63
2023-04-09T20:33:18.193Z,101991.16
2023-04-09T20:35:45.538Z,101995.69
2023-04-09T20:38:12.569Z,101994.69
2023-04-09T20:40:39.677Z,101992.81
2023-04-09T20:43:06.664Z,101980.41
2023-04-09T20:45:33.708Z,101984.69
2023-04-09T20:48:01.444Z,101986.41
2023-04-09T20:50:28.943Z,101984.44
2023-04-09T20:52:56.070Z,101988.75
2023-04-09T20:55:23.902Z,101995.97
2023-04-09T20:57:51.879Z,101997.41
2023-04-09T21:00:18.939Z,102000.94
2023-04-09T21:02:46.243Z,101993.63
2023-04-09T21:05:22.426Z,101997.09
2023-04-09T21:07:50.834Z,101995.97
2023-04-09T21:10:17.946Z,102003.13
2023-04-09T21:12:44.924Z,102000.28
2023-04-09T21:15:12.031Z,101998.50
2023-04-09T21:17:38.958Z,101986.94
2023-04-09T21:20:06.696Z,101998.28
2023-04-09T21:22:34.792Z,101999.00
2023-04-09T21:25:03.192Z,101997.13
2023-04-09T21:27:30.467Z,101999.78
2023-04-09T21:29:57.575Z,101994.50
2023-04-09T21:32:25.261Z,102001.59
2023-04-09T21:34:52.408Z,102001.47
2023-04-09T21:37:19.377Z,101992.53
2023-04-09T21:39:48.294Z,101993.09
2023-04-09T21:42:15.756Z,101997.31
2023-04-09T21:44:42.750Z,101986.81
2023-04-09T21:47:09.785Z,101999.84
2023-04-09T21:49:39.356Z,101991.91
2023-04-09T21:52:13.808Z,101996.34
2023-04-09T21:54:43.199Z,101994.31
2023-04-09T21:57:11.177Z,101995.94
2023-04-09T21:59:38.380Z,101994.28
2023-04-09T22:02:05.698Z,101992.50
2023-04-09T22:04:35.801Z,101993.44
2023-04-09T22:07:03.685Z,101987.09
2023-04-09T22:09:31.624Z,101987.94
2023-04-09T22:11:59.660Z,101984.28
2023-04-09T22:14:29.318Z,101987.75
2023-04-09T22:16:58.333Z,101990.19
2023-04-09T22:19:26.248Z,101991.13
2023-04-09T22:21:53.641Z,101990.94
2023-04-09T22:24:26.876Z,101992.50
2023-04-09T22:26:54.178Z,102004.81
2023-04-09T22:29:21.318Z,102001.34
2023-04-09T22:31:48.386Z,102000.41
2023-04-09T22:34:21.325Z,102000.34
2023-04-09T22:36:48.853Z,101994.09
2023-04-09T22:39:16.054Z,101997.41
2023-04-09T22:41:43.136Z,101989.34
2023-04-09T22:44:10.118Z,101980.44
2023-04-09T22:46:37.279Z,101986.56
2023-04-09T22:49:05.789Z,101990.88
2023-04-09T22:51:34.678Z,101986.28
2023-04-09T22:54:02.347Z,101978.34
2023-04-09T22:56:31.811Z,101980.06
2023-04-09T22:58:59.168Z,101979.03
2023-04-09T23:01:27.800Z,101986.94
2023-04-09T23:03:55.606Z,101978.03
2023-04-09T23:06:22.942Z,101980.72
2023-04-09T23:08:50.601Z,101987.56
2023-04-09T23:11:17.611Z,101983.91
2023-04-09T23:13:44.678Z,101982.84
2023-04-09T23:16:11.747Z,101980.13
2023-04-09T23:18:38.830Z,101982.75
2023-04-09T23:21:08.103Z,101972.81
2023-04-09T23:23:36.163Z,101970.88
2023-04-09T23:26:03.258Z,101967.09
2023-04-09T23:28:31.015Z,101953.66
2023-04-09T23:30:58.093Z,101958.72
2023-04-09T23:33:25.279Z,101948.31
2023-04-09T23:35:52.412Z,101947.97
2023-04-09T23:38:19.545Z,101959.03
2023-04-09T23:40:48.171Z,101952.03
2023-04-09T23:43:15.158Z,101939.38
2023-04-09T23:45:43.821Z,101940.31
2023-04-09T23:48:12.516Z,101933.09
2023-04-09T23:50:41.416Z,101932.06
2023-04-09T23:53:08.946Z,101935.53
2023-04-09T23:55:41.159Z,101934.75
2023-04-09T23:58:09.573Z,101932.00
